Time;durP1;ratioP1;P1;durP2;ratioP2;P2;SDS_P1;SDS_P2;PMS_P1;PMS_P2;Temp;Humidity;BMP_temperature;BMP_pressure;BME280_temperature;BME280_humidity;BME280_pressure;Samples;Min_cycle;Max_cycle;Signal;HPM_P1;HPM_P2
2020/12/08 06:02:03;;;;;;;27.10;13.37;;;4.40;97.30;;;;;;5392826;23;21008;-68
2020/12/08 06:04:39;;;;;;;24.97;12.90;;;4.40;97.30;;;;;;4934808;29;20470;-68
2020/12/08 06:07:05;;;;;;;27.87;14.00;;;4.40;97.30;;;;;;4948167;29;20198;-68
2020/12/08 06:09:33;;;;;;;29.03;14.87;;;4.40;97.30;;;;;;4953726;29;20439;-68
2020/12/08 06:12:00;;;;;;;24.10;13.20;;;4.40;97.30;;;;;;4939503;29;20220;-68
2020/12/08 06:14:33;;;;;;;27.00;13.13;;;4.40;97.30;;;;;;4934401;29;20434;-68
2020/12/08 06:17:00;;;;;;;27.20;13.60;;;4.40;97.30;;;;;;4934237;29;20523;-68
2020/12/08 06:19:26;;;;;;;37.10;14.37;;;4.40;97.30;;;;;;4935626;29;20917;-68
2020/12/08 06:21:52;;;;;;;24.80;14.67;;;4.40;97.30;;;;;;4934167;29;20471;-68
2020/12/08 06:24:18;;;;;;;26.13;13.17;;;4.40;97.30;;;;;;4935191;29;20306;-68
2020/12/08 06:26:43;;;;;;;31.97;16.90;;;4.40;97.30;;;;;;4936604;29;20184;-68
2020/12/08 06:29:10;;;;;;;25.13;13.00;;;4.40;97.30;;;;;;4938293;29;20180;-68
2020/12/08 06:31:43;;;;;;;26.90;13.60;;;4.30;97.30;;;;;;4937948;29;20199;-68
2020/12/08 06:34:10;;;;;;;24.50;13.90;;;4.30;97.30;;;;;;4939103;29;20426;-68
2020/12/08 06:36:36;;;;;;;29.60;13.50;;;4.30;97.30;;;;;;4923113;29;20436;-68
2020/12/08 06:39:07;;;;;;;33.80;14.77;;;4.20;97.30;;;;;;4920582;29;20428;-68
2020/12/08 06:41:41;;;;;;;25.07;13.97;;;4.30;97.30;;;;;;4918862;29;20448;-68
2020/12/08 06:44:16;;;;;;;35.50;15.50;;;4.30;97.30;;;;;;4918604;29;20543;-68
2020/12/08 06:46:57;;;;;;;29.03;14.57;;;4.30;97.30;;;;;;4918656;29;20420;-68
2020/12/08 06:49:23;;;;;;;34.93;14.80;;;4.40;97.30;;;;;;4918775;29;20428;-68
2020/12/08 06:51:57;;;;;;;29.60;14.70;;;4.40;97.30;;;;;;4918547;29;21016;-68
2020/12/08 06:54:24;;;;;;;27.67;13.60;;;4.40;97.30;;;;;;4918416;29;20423;-68
2020/12/08 06:56:50;;;;;;;30.27;14.30;;;4.40;97.30;;;;;;4919909;29;20420;-68
2020/12/08 06:59:23;;;;;;;31.87;13.33;;;4.40;97.30;;;;;;4919923;29;20420;-68
2020/12/08 07:01:53;;;;;;;27.43;14.10;;;4.40;97.30;;;;;;4918384;29;20456;-68
2020/12/08 07:04:19;;;;;;;23.27;12.20;;;4.30;97.30;;;;;;4918207;29;20843;-68
2020/12/08 07:06:45;;;;;;;26.87;13.57;;;4.30;97.30;;;;;;4918205;29;20525;-68
2020/12/08 07:09:12;;;;;;;25.87;13.03;;;4.20;97.30;;;;;;4919561;29;20507;-68
2020/12/08 07:11:38;;;;;;;26.90;14.23;;;4.20;97.30;;;;;;4918397;29;20448;-68
2020/12/08 07:14:07;;;;;;;28.57;14.73;;;4.20;97.30;;;;;;4919533;29;20439;-68
2020/12/08 07:16:34;;;;;;;29.40;13.80;;;4.20;97.30;;;;;;4918297;29;20433;-68
2020/12/08 07:19:04;;;;;;;28.10;14.80;;;4.10;97.30;;;;;;4918393;29;20431;-68
2020/12/08 07:21:30;;;;;;;27.83;13.43;;;4.10;97.30;;;;;;4918016;29;20499;-68
2020/12/08 07:23:56;;;;;;;22.40;12.50;;;4.10;97.30;;;;;;4919212;29;20468;-68
2020/12/08 07:26:29;;;;;;;26.73;13.70;;;4.00;97.30;;;;;;4919267;29;20180;-68
2020/12/08 07:28:57;;;;;;;24.83;13.10;;;4.00;97.30;;;;;;4918213;29;20184;-68
2020/12/08 07:31:30;;;;;;;25.00;13.47;;;3.90;97.30;;;;;;4918116;29;20529;-68
2020/12/08 07:33:56;;;;;;;27.63;13.80;;;3.90;97.30;;;;;;4917647;29;20934;-68
2020/12/08 07:36:24;;;;;;;29.37;13.70;;;3.90;97.30;;;;;;4919122;29;20425;-68
2020/12/08 07:38:52;;;;;;;29.60;14.80;;;3.90;97.30;;;;;;4917327;29;20943;-68
2020/12/08 07:41:19;;;;;;;28.17;15.17;;;3.90;97.30;;;;;;4917696;29;20440;-68
2020/12/08 07:43:45;;;;;;;28.60;15.07;;;3.80;97.30;;;;;;4919300;29;20468;-68
2020/12/08 07:46:11;;;;;;;26.97;13.60;;;3.80;97.30;;;;;;4918757;29;20468;-68
2020/12/08 07:48:36;;;;;;;28.60;13.97;;;3.70;97.30;;;;;;4917565;29;20203;-68
2020/12/08 07:51:02;;;;;;;27.40;12.37;;;3.70;97.30;;;;;;4919121;29;20192;-68
2020/12/08 07:53:35;;;;;;;26.77;13.90;;;3.70;97.30;;;;;;4917150;29;20284;-68
2020/12/08 07:56:01;;;;;;;24.43;13.27;;;3.70;97.30;;;;;;4917821;29;20247;-68
2020/12/08 07:58:26;;;;;;;22.80;12.97;;;3.70;97.30;;;;;;4917595;29;20836;-68
2020/12/08 08:00:52;;;;;;;31.03;14.83;;;3.80;97.30;;;;;;4917349;29;20682;-68
2020/12/08 08:03:18;;;;;;;28.90;14.33;;;3.70;97.30;;;;;;4917202;29;20310;-69
2020/12/08 08:05:43;;;;;;;30.30;14.60;;;3.70;97.30;;;;;;4917509;29;20205;-68
2020/12/08 08:08:09;;;;;;;27.93;14.93;;;3.70;97.30;;;;;;4917436;29;20188;-68
2020/12/08 08:10:34;;;;;;;28.53;13.70;;;3.70;97.30;;;;;;4918493;29;20200;-68
2020/12/08 08:13:00;;;;;;;30.70;14.10;;;3.80;97.30;;;;;;4916812;29;20180;-68
2020/12/08 08:15:26;;;;;;;32.50;15.90;;;3.80;97.30;;;;;;4917208;29;20195;-68
2020/12/08 08:17:51;;;;;;;35.80;15.63;;;3.90;97.30;;;;;;4918258;29;20261;-68
2020/12/08 08:20:17;;;;;;;29.20;15.43;;;4.00;97.30;;;;;;4917129;29;20195;-68
2020/12/08 08:22:42;;;;;;;30.50;14.20;;;4.10;97.30;;;;;;4917062;29;20279;-68
2020/12/08 08:25:08;;;;;;;32.50;15.77;;;4.20;97.30;;;;;;4916938;29;20690;-68
2020/12/08 08:27:34;;;;;;;30.27;14.30;;;4.30;97.30;;;;;;4918472;29;20173;-68
2020/12/08 08:30:00;;;;;;;32.13;15.50;;;4.30;97.30;;;;;;4918191;29;20191;-68
2020/12/08 08:32:25;;;;;;;32.03;15.40;;;4.40;97.30;;;;;;4916966;29;20231;-68
2020/12/08 08:34:51;;;;;;;33.00;16.20;;;4.50;97.30;;;;;;4917971;29;20181;-69
2020/12/08 08:37:17;;;;;;;36.87;15.90;;;4.60;97.30;;;;;;4916916;29;20191;-69
2020/12/08 08:39:42;;;;;;;37.00;15.23;;;4.70;97.30;;;;;;4916941;29;20177;-69
2020/12/08 08:42:08;;;;;;;37.27;16.50;;;4.80;97.30;;;;;;4917913;29;20817;-69
2020/12/08 08:44:34;;;;;;;31.83;15.43;;;4.90;97.30;;;;;;4917410;29;20208;-68
2020/12/08 08:46:59;;;;;;;35.80;16.83;;;5.00;97.30;;;;;;4917943;29;20189;-69
2020/12/08 08:49:25;;;;;;;31.40;15.10;;;5.10;97.30;;;;;;4916994;29;20204;-69
2020/12/08 08:51:51;;;;;;;33.77;16.60;;;5.10;97.30;;;;;;4917664;29;20200;-69
2020/12/08 08:54:18;;;;;;;33.93;15.67;;;5.20;97.30;;;;;;4916285;29;20193;-69
2020/12/08 08:56:44;;;;;;;34.50;16.63;;;5.30;97.30;;;;;;4917966;29;20316;-68
2020/12/08 08:59:10;;;;;;;34.93;16.77;;;5.40;97.30;;;;;;4916467;29;20516;-68
2020/12/08 09:01:36;;;;;;;31.93;16.60;;;5.40;97.30;;;;;;4916104;29;20216;-68
2020/12/08 09:04:02;;;;;;;34.97;17.10;;;5.50;97.30;;;;;;4916050;29;20472;-68
2020/12/08 09:06:28;;;;;;;32.23;15.93;;;5.60;97.30;;;;;;4917512;29;20419;-68
2020/12/08 09:08:54;;;;;;;28.97;15.27;;;5.60;97.30;;;;;;4917496;29;20417;-68
2020/12/08 09:11:19;;;;;;;32.60;16.20;;;5.60;97.30;;;;;;4916331;29;20520;-69
2020/12/08 09:13:45;;;;;;;36.67;17.13;;;5.70;97.30;;;;;;4915797;29;20657;-68
2020/12/08 09:16:12;;;;;;;33.70;15.97;;;5.80;97.30;;;;;;4915756;29;20185;-68
2020/12/08 09:18:38;;;;;;;29.80;14.90;;;5.80;97.30;;;;;;4916430;29;20527;-68
2020/12/08 09:21:03;;;;;;;30.20;15.03;;;5.90;97.30;;;;;;4916137;29;20542;-69
2020/12/08 09:23:29;;;;;;;37.20;16.87;;;6.00;97.30;;;;;;4917528;29;20581;-68
2020/12/08 09:25:57;;;;;;;30.10;15.57;;;6.10;97.30;;;;;;4915990;29;20549;-68
2020/12/08 09:28:24;;;;;;;27.47;14.47;;;6.20;97.30;;;;;;4917088;29;20608;-68
2020/12/08 09:30:50;;;;;;;35.20;16.20;;;6.30;97.30;;;;;;4915829;29;20441;-69
2020/12/08 09:33:16;;;;;;;32.90;16.20;;;6.30;97.30;;;;;;4915626;29;20989;-68
2020/12/08 09:35:42;;;;;;;33.07;14.90;;;6.40;97.30;;;;;;4917176;29;20650;-68
2020/12/08 09:38:09;;;;;;;30.50;16.20;;;6.50;97.30;;;;;;4915726;29;20176;-68
2020/12/08 09:40:35;;;;;;;28.10;14.70;;;6.50;97.30;;;;;;4915924;29;20532;-69
2020/12/08 09:43:02;;;;;;;31.63;14.80;;;6.60;97.30;;;;;;4915365;29;20469;-69
2020/12/08 09:45:27;;;;;;;30.40;14.50;;;6.70;97.30;;;;;;4915641;29;20504;-68
2020/12/08 09:47:53;;;;;;;29.60;14.73;;;6.80;97.30;;;;;;4915231;29;20461;-68
2020/12/08 09:50:18;;;;;;;31.20;14.60;;;6.80;97.30;;;;;;4916786;29;20547;-69
2020/12/08 09:52:44;;;;;;;28.13;13.60;;;6.90;97.30;;;;;;4915460;29;20224;-68
2020/12/08 09:55:10;;;;;;;28.40;14.60;;;7.00;97.30;;;;;;4915262;29;20183;-68
2020/12/08 09:57:35;;;;;;;29.70;14.40;;;7.10;97.30;;;;;;4916916;29;20600;-69
2020/12/08 10:00:01;;;;;;;28.70;15.13;;;7.20;97.30;;;;;;4915426;29;20207;-69
2020/12/08 10:02:27;;;;;;;27.30;13.93;;;7.20;97.30;;;;;;4916292;29;20595;-69
2020/12/08 10:04:53;;;;;;;25.80;14.50;;;7.30;97.30;;;;;;4915319;29;21053;-69
2020/12/08 10:07:21;;;;;;;27.80;13.57;;;7.40;97.30;;;;;;4916759;29;20225;-69
2020/12/08 10:09:48;;;;;;;31.90;14.73;;;7.50;97.30;;;;;;4915493;29;20476;-69
2020/12/08 10:12:14;;;;;;;25.03;13.23;;;7.60;97.30;;;;;;4916487;29;20635;-69
2020/12/08 10:14:43;;;;;;;27.00;13.40;;;7.80;97.30;;;;;;4914683;29;20424;-69
2020/12/08 10:17:10;;;;;;;28.00;14.20;;;7.90;97.30;;;;;;4916695;29;20447;-69
2020/12/08 10:19:36;;;;;;;28.20;14.13;;;7.90;97.30;;;;;;4915291;29;20483;-69
2020/12/08 10:22:01;;;;;;;30.67;14.77;;;8.00;97.30;;;;;;4915207;29;20436;-69
2020/12/08 10:24:27;;;;;;;26.50;12.53;;;8.00;97.30;;;;;;4916414;29;20196;-69
2020/12/08 10:26:53;;;;;;;26.20;14.50;;;8.00;97.30;;;;;;4915172;29;20184;-69
2020/12/08 10:29:19;;;;;;;21.07;12.80;;;7.80;97.30;;;;;;4916460;29;20173;-69
2020/12/08 10:31:46;;;;;;;24.27;13.97;;;7.60;97.30;;;;;;4915318;29;20447;-69
2020/12/08 10:34:11;;;;;;;26.47;13.63;;;7.50;97.30;;;;;;4916063;29;20409;-70
2020/12/08 10:36:38;;;;;;;26.73;15.17;;;7.60;97.30;;;;;;4915611;29;20441;-69
2020/12/08 10:39:04;;;;;;;25.10;13.70;;;7.60;97.30;;;;;;4916612;29;20180;-69
2020/12/08 10:41:31;;;;;;;22.83;13.23;;;7.70;97.30;;;;;;4915326;29;20440;-69
2020/12/08 10:43:56;;;;;;;23.87;12.87;;;7.90;97.30;;;;;;4914953;29;20471;-69
2020/12/08 10:46:22;;;;;;;25.70;13.47;;;8.00;97.30;;;;;;4914944;29;20421;-69
2020/12/08 10:48:50;;;;;;;28.23;14.20;;;8.10;97.30;;;;;;4915276;29;20172;-69
2020/12/08 10:51:22;;;;;;;25.90;14.40;;;8.20;97.30;;;;;;4916253;29;20670;-69
2020/12/08 10:53:48;;;;;;;26.90;13.80;;;8.30;97.20;;;;;;4915626;29;20433;-68
2020/12/08 10:56:24;;;;;;;23.33;13.10;;;8.30;95.90;;;;;;4914871;29;20480;-69
2020/12/08 10:58:51;;;;;;;27.80;12.37;;;8.40;96.50;;;;;;4915189;29;20942;-69
2020/12/08 11:01:24;;;;;;;23.00;12.97;;;8.50;95.60;;;;;;4916066;29;20452;-69
2020/12/08 11:03:51;;;;;;;22.23;12.83;;;8.50;95.20;;;;;;4914681;29;20492;-69
2020/12/08 11:06:24;;;;;;;26.57;13.37;;;8.40;95.50;;;;;;4914815;29;20420;-69
2020/12/08 11:08:50;;;;;;;26.53;13.00;;;8.40;95.70;;;;;;4916200;29;20496;-69
2020/12/08 11:11:33;;;;;;;26.07;13.80;;;8.50;96.10;;;;;;4916141;29;20523;-69
2020/12/08 11:14:00;;;;;;;23.80;12.47;;;8.50;95.80;;;;;;4916891;29;20480;-69
2020/12/08 11:16:27;;;;;;;25.97;13.03;;;8.50;95.70;;;;;;4919663;29;20412;-69
2020/12/08 11:18:53;;;;;;;27.40;13.40;;;8.70;95.70;;;;;;4919495;29;20415;-69
2020/12/08 11:21:23;;;;;;;21.70;11.90;;;8.90;95.60;;;;;;4919378;29;20483;-69
2020/12/08 11:23:49;;;;;;;23.27;13.70;;;9.10;94.50;;;;;;4917996;29;20460;-69
2020/12/08 11:26:15;;;;;;;25.30;12.80;;;9.20;94.00;;;;;;4919085;29;20464;-70
2020/12/08 11:28:40;;;;;;;21.00;12.30;;;9.20;93.90;;;;;;4919506;29;20212;-69
2020/12/08 11:31:06;;;;;;;26.47;14.63;;;9.20;93.60;;;;;;4918729;29;20574;-72
2020/12/08 11:33:33;;;;;;;26.37;14.57;;;9.20;93.40;;;;;;4922667;29;20232;-73
2020/12/08 11:35:59;;;;;;;23.00;12.97;;;9.30;93.60;;;;;;4922694;29;20429;-76
2020/12/08 11:38:26;;;;;;;26.30;13.93;;;9.30;93.30;;;;;;4922730;29;20444;-70
2020/12/08 11:40:52;;;;;;;23.40;13.03;;;9.30;93.40;;;;;;4920658;29;20499;-70
2020/12/08 11:43:18;;;;;;;30.60;14.10;;;9.50;93.20;;;;;;4918451;29;20465;-70
2020/12/08 11:45:44;;;;;;;28.63;15.53;;;9.70;93.10;;;;;;4919762;29;20666;-70
2020/12/08 11:48:10;;;;;;;23.97;13.20;;;9.70;92.30;;;;;;4917968;29;20448;-69
2020/12/08 11:50:36;;;;;;;22.23;12.43;;;9.70;92.70;;;;;;4917848;29;20809;-70
2020/12/08 11:53:01;;;;;;;24.90;13.80;;;9.80;92.70;;;;;;4918777;29;20184;-69
2020/12/08 11:55:27;;;;;;;22.80;12.60;;;9.80;92.50;;;;;;4918972;29;20650;-69
2020/12/08 11:57:53;;;;;;;22.07;12.63;;;9.90;92.40;;;;;;4917464;29;20176;-70
2020/12/08 12:00:18;;;;;;;22.37;12.83;;;10.00;92.30;;;;;;4918841;29;20169;-69
2020/12/08 12:02:44;;;;;;;24.00;12.63;;;10.10;91.80;;;;;;4918589;29;20243;-70
2020/12/08 12:05:10;;;;;;;30.93;13.97;;;10.30;91.70;;;;;;4917455;29;20187;-70
2020/12/08 12:07:35;;;;;;;23.73;13.53;;;10.30;91.10;;;;;;4918649;29;20173;-70
2020/12/08 12:10:02;;;;;;;27.33;14.70;;;10.30;91.10;;;;;;4917551;29;20180;-69
2020/12/08 12:12:27;;;;;;;23.00;13.50;;;10.20;91.30;;;;;;4917289;29;20228;-70
2020/12/08 12:14:53;;;;;;;23.60;13.80;;;10.00;91.30;;;;;;4918449;29;20915;-69
2020/12/08 12:17:19;;;;;;;24.67;14.33;;;9.70;92.00;;;;;;4918382;29;20176;-69
2020/12/08 12:19:44;;;;;;;26.90;14.60;;;9.40;92.70;;;;;;4917370;29;20201;-69
2020/12/08 12:22:10;;;;;;;30.60;14.40;;;9.20;93.40;;;;;;4918228;29;20231;-69
2020/12/08 12:24:36;;;;;;;26.37;14.50;;;9.20;93.80;;;;;;4918169;29;20631;-69
2020/12/08 12:27:01;;;;;;;26.27;14.93;;;9.20;94.20;;;;;;4917318;29;20556;-69
2020/12/08 12:29:27;;;;;;;31.97;15.63;;;9.30;94.30;;;;;;4916847;29;20275;-69
2020/12/08 12:31:53;;;;;;;23.73;13.90;;;9.70;94.10;;;;;;4916828;29;20196;-69
2020/12/08 12:34:18;;;;;;;27.70;14.77;;;9.90;93.30;;;;;;4916806;29;20231;-69
2020/12/08 12:36:48;;;;;;;24.40;14.10;;;10.20;92.60;;;;;;4918210;29;20527;-70
2020/12/08 12:39:15;;;;;;;23.70;14.57;;;10.40;92.20;;;;;;4916845;29;20728;-69
2020/12/08 12:41:41;;;;;;;28.10;14.93;;;10.60;91.80;;;;;;4917958;29;20483;-69
2020/12/08 12:44:07;;;;;;;27.80;15.23;;;10.80;91.30;;;;;;4917665;29;21028;-69
2020/12/08 12:46:33;;;;;;;27.60;15.30;;;10.90;90.80;;;;;;4917581;29;20425;-69
2020/12/08 12:48:58;;;;;;;26.30;15.60;;;11.10;90.80;;;;;;4918141;29;20176;-70
2020/12/08 12:51:27;;;;;;;28.30;16.20;;;11.30;90.40;;;;;;4917764;29;20195;-69
2020/12/08 12:53:54;;;;;;;25.80;14.80;;;11.50;90.00;;;;;;4917532;29;20248;-69
2020/12/08 12:56:24;;;;;;;25.03;14.13;;;11.70;89.50;;;;;;4917694;29;20907;-69
2020/12/08 12:58:50;;;;;;;27.37;14.83;;;12.10;89.30;;;;;;4916507;29;20424;-70
2020/12/08 13:01:17;;;;;;;28.50;15.70;;;12.20;88.30;;;;;;4917397;29;20449;-70
2020/12/08 13:03:43;;;;;;;27.40;15.27;;;12.00;88.50;;;;;;4917381;29;20599;-69
2020/12/08 13:06:10;;;;;;;28.90;15.63;;;11.80;88.60;;;;;;4917624;29;20600;-69
2020/12/08 13:08:36;;;;;;;23.23;14.90;;;11.70;89.10;;;;;;4916349;29;20421;-69
2020/12/08 13:11:06;;;;;;;26.87;15.30;;;11.50;89.30;;;;;;4917639;29;20429;-69
2020/12/08 13:13:31;;;;;;;27.67;15.17;;;11.50;89.50;;;;;;4915776;29;20421;-69
2020/12/08 13:15:57;;;;;;;25.90;14.90;;;11.50;89.30;;;;;;4917477;29;20431;-69
2020/12/08 13:18:23;;;;;;;24.57;14.37;;;11.50;89.40;;;;;;4916056;29;20738;-69
2020/12/08 13:20:48;;;;;;;27.53;14.87;;;11.40;89.30;;;;;;4916280;29;20204;-69
2020/12/08 13:23:14;;;;;;;23.70;14.00;;;11.50;89.10;;;;;;4915807;29;20208;-70
2020/12/08 13:25:40;;;;;;;23.10;14.60;;;11.40;89.10;;;;;;4916322;29;20180;-69
2020/12/08 13:28:06;;;;;;;29.43;14.30;;;11.40;89.30;;;;;;4915848;29;20181;-70
2020/12/08 13:30:31;;;;;;;23.73;14.27;;;11.50;89.20;;;;;;4915883;29;20642;-72
2020/12/08 13:32:57;;;;;;;26.40;14.50;;;11.50;89.20;;;;;;4915692;29;20228;-69
2020/12/08 13:35:23;;;;;;;30.17;14.07;;;11.50;89.00;;;;;;4915182;29;20181;-70
2020/12/08 13:37:49;;;;;;;27.90;15.00;;;11.30;89.40;;;;;;4917115;29;20575;-69
2020/12/08 13:40:15;;;;;;;26.23;14.00;;;11.20;89.80;;;;;;4915532;29;20475;-70
2020/12/08 13:42:43;;;;;;;26.50;15.13;;;11.10;90.10;;;;;;4916986;29;20228;-69
2020/12/08 13:45:09;;;;;;;25.13;13.90;;;11.10;90.20;;;;;;4915702;29;20212;-69
2020/12/08 13:47:35;;;;;;;29.17;15.40;;;11.40;90.10;;;;;;4915536;29;20432;-70
2020/12/08 13:50:01;;;;;;;26.03;13.80;;;11.70;89.30;;;;;;4915705;29;20424;-69
2020/12/08 13:52:26;;;;;;;24.50;14.63;;;12.00;88.70;;;;;;4915569;29;20686;-70
2020/12/08 13:54:52;;;;;;;20.10;12.20;;;12.20;87.90;;;;;;4915522;29;20440;-70
2020/12/08 13:57:18;;;;;;;30.73;13.40;;;12.20;87.70;;;;;;4916739;29;20188;-70
2020/12/08 13:59:44;;;;;;;24.27;14.20;;;12.30;87.50;;;;;;4915580;29;20180;-70
2020/12/08 14:02:09;;;;;;;24.73;13.30;;;12.40;87.60;;;;;;4915268;29;20460;-70
2020/12/08 14:04:36;;;;;;;20.57;13.23;;;12.50;87.20;;;;;;4915381;29;20208;-69
2020/12/08 14:07:02;;;;;;;22.70;13.80;;;12.60;86.80;;;;;;4915396;29;20184;-70
2020/12/08 14:09:28;;;;;;;23.63;13.63;;;12.50;86.90;;;;;;4915531;29;20492;-70
2020/12/08 14:11:53;;;;;;;28.83;13.80;;;12.40;87.00;;;;;;4916386;29;20192;-70
2020/12/08 14:14:19;;;;;;;22.37;12.90;;;12.30;87.30;;;;;;4921374;29;20536;-71
2020/12/08 14:16:48;;;;;;;23.77;14.07;;;11.90;87.80;;;;;;4914894;29;20456;-71
2020/12/08 14:19:14;;;;;;;21.00;12.30;;;11.40;88.90;;;;;;4916383;29;20721;-71
2020/12/08 14:21:39;;;;;;;27.50;14.50;;;11.20;89.60;;;;;;4915069;29;20440;-72
2020/12/08 14:24:17;;;;;;;25.03;14.90;;;11.10;90.00;;;;;;4914861;29;20248;-70
2020/12/08 14:26:42;;;;;;;25.50;14.70;;;11.00;90.10;;;;;;4916718;29;20183;-70
2020/12/08 14:29:08;;;;;;;22.53;13.47;;;10.80;90.40;;;;;;4914974;29;20781;-70
2020/12/08 14:31:34;;;;;;;24.10;14.63;;;10.50;90.70;;;;;;4915105;29;20201;-71
2020/12/08 14:33:59;;;;;;;26.03;14.33;;;10.10;91.40;;;;;;4914487;29;20181;-70
2020/12/08 14:36:25;;;;;;;26.50;14.73;;;9.80;92.00;;;;;;4914982;29;20549;-69
2020/12/08 14:38:51;;;;;;;26.30;14.90;;;9.50;92.80;;;;;;4914400;29;20207;-71
2020/12/08 14:41:16;;;;;;;26.87;14.27;;;9.20;93.50;;;;;;4915051;29;20208;-72
2020/12/08 14:43:42;;;;;;;21.63;13.17;;;8.90;94.10;;;;;;4914315;29;20235;-71
2020/12/08 14:46:08;;;;;;;22.10;12.30;;;8.70;94.60;;;;;;4915050;29;20191;-70
2020/12/08 14:48:33;;;;;;;23.30;12.43;;;8.40;94.90;;;;;;4916516;29;20193;-72
2020/12/08 14:50:59;;;;;;;22.80;12.93;;;8.20;95.30;;;;;;4919413;29;20203;-71
2020/12/08 14:53:24;;;;;;;18.10;11.27;;;8.00;95.70;;;;;;4917966;29;20188;-70
2020/12/08 14:55:50;;;;;;;21.83;12.10;;;7.90;96.10;;;;;;4918256;29;20220;-72
2020/12/08 14:58:16;;;;;;;23.77;13.27;;;7.70;96.60;;;;;;4918220;29;20647;-71
2020/12/08 15:00:41;;;;;;;29.47;15.63;;;7.50;97.30;;;;;;4918354;29;20200;-71
2020/12/08 15:03:08;;;;;;;28.43;15.50;;;7.40;97.30;;;;;;4917529;29;20288;-70
2020/12/08 15:05:33;;;;;;;26.00;15.17;;;7.20;97.30;;;;;;4918123;29;20263;-70
2020/12/08 15:07:59;;;;;;;30.50;16.00;;;7.10;97.30;;;;;;4918218;29;20866;-70
2020/12/08 15:10:25;;;;;;;28.37;15.53;;;7.10;97.30;;;;;;4918056;29;20275;-70
2020/12/08 15:12:51;;;;;;;25.33;13.13;;;7.00;97.30;;;;;;4918885;29;20203;-70
2020/12/08 15:15:16;;;;;;;23.60;13.60;;;6.90;97.30;;;;;;4917306;29;20205;-70
2020/12/08 15:17:42;;;;;;;33.90;15.73;;;6.90;97.30;;;;;;4918460;29;20180;-71
2020/12/08 15:20:08;;;;;;;28.87;15.23;;;6.80;97.30;;;;;;4918214;29;20800;-72
2020/12/08 15:22:33;;;;;;;25.83;14.57;;;6.80;97.30;;;;;;4917174;29;20219;-71
2020/12/08 15:24:59;;;;;;;26.00;15.27;;;6.70;97.30;;;;;;4917029;29;20231;-70
2020/12/08 15:27:25;;;;;;;23.87;13.80;;;6.60;97.30;;;;;;4917519;29;20574;-70
2020/12/08 15:29:51;;;;;;;22.90;14.37;;;6.60;97.30;;;;;;4918718;29;20493;-69
2020/12/08 15:32:16;;;;;;;26.40;15.07;;;6.50;97.30;;;;;;4917645;29;20206;-71
2020/12/08 15:34:42;;;;;;;22.77;14.37;;;6.50;97.30;;;;;;4917899;29;20188;-71
2020/12/08 15:37:08;;;;;;;27.20;15.03;;;6.40;97.30;;;;;;4917616;29;20555;-71
2020/12/08 15:39:33;;;;;;;21.00;13.50;;;6.40;97.30;;;;;;4919519;29;20180;-70
2020/12/08 15:42:03;;;;;;;25.00;15.57;;;6.20;97.30;;;;;;4918038;29;20213;-71
2020/12/08 15:44:29;;;;;;;26.53;15.27;;;6.10;97.30;;;;;;4916990;29;20299;-71
2020/12/08 15:46:55;;;;;;;23.17;14.93;;;6.10;97.30;;;;;;4917716;29;20850;-70
2020/12/08 15:49:20;;;;;;;25.07;15.20;;;6.00;97.30;;;;;;4918731;29;20180;-69
2020/12/08 15:51:46;;;;;;;28.60;15.10;;;5.90;97.30;;;;;;4918265;29;20604;-70
2020/12/08 15:54:12;;;;;;;27.00;15.97;;;5.80;97.30;;;;;;4917349;29;20252;-69
2020/12/08 15:56:40;;;;;;;24.60;14.60;;;5.80;97.30;;;;;;4918798;29;20417;-69
2020/12/08 15:59:06;;;;;;;24.83;15.23;;;5.70;97.30;;;;;;4917187;29;20288;-70
2020/12/08 16:01:33;;;;;;;26.27;14.90;;;5.60;97.30;;;;;;4917702;29;20468;-70
2020/12/08 16:03:58;;;;;;;26.37;15.30;;;5.50;97.30;;;;;;4916409;29;20558;-69
2020/12/08 16:06:33;;;;;;;29.17;14.77;;;5.40;97.30;;;;;;4917229;29;20508;-69
2020/12/08 16:08:58;;;;;;;25.23;14.03;;;5.40;97.30;;;;;;4917232;29;20182;-70
2020/12/08 16:11:24;;;;;;;26.90;15.03;;;5.30;97.30;;;;;;4917174;29;20520;-69
2020/12/08 16:13:50;;;;;;;27.60;14.50;;;5.30;97.30;;;;;;4916555;29;20294;-70
2020/12/08 16:16:17;;;;;;;26.37;15.00;;;5.30;97.30;;;;;;4917106;29;20310;-70
2020/12/08 16:18:42;;;;;;;29.60;15.97;;;5.20;97.30;;;;;;4900904;29;20440;-70
2020/12/08 16:21:08;;;;;;;30.87;15.30;;;5.20;97.30;;;;;;4916759;29;20582;-71
2020/12/08 16:23:34;;;;;;;24.33;13.50;;;5.10;97.30;;;;;;4918180;29;20216;-70
2020/12/08 16:26:00;;;;;;;29.63;14.43;;;5.00;97.30;;;;;;4916354;29;20709;-68
2020/12/08 16:28:27;;;;;;;28.10;14.57;;;4.90;97.30;;;;;;4916547;29;20195;-70
2020/12/08 16:30:53;;;;;;;24.07;13.10;;;4.80;97.30;;;;;;4916686;29;20211;-70
2020/12/08 16:33:19;;;;;;;24.50;14.27;;;4.70;97.30;;;;;;4916656;29;20436;-70
2020/12/08 16:35:45;;;;;;;25.50;13.60;;;4.70;97.30;;;;;;4916729;29;20192;-70
2020/12/08 16:38:11;;;;;;;28.37;14.60;;;4.60;97.30;;;;;;4916689;29;20533;-70
2020/12/08 16:40:39;;;;;;;44.13;18.77;;;4.60;97.30;;;;;;4916496;29;20311;-69
2020/12/08 16:43:09;;;;;;;52.77;23.30;;;4.50;97.30;;;;;;4917706;29;20552;-69
2020/12/08 16:45:35;;;;;;;87.67;30.63;;;4.50;97.30;;;;;;4916625;29;20427;-73
2020/12/08 16:48:02;;;;;;;79.70;27.40;;;4.50;97.30;;;;;;4915976;29;20440;-77
2020/12/08 16:50:28;;;;;;;44.80;19.77;;;4.40;97.30;;;;;;4917103;29;20424;-79
2020/12/08 16:52:54;;;;;;;38.87;17.70;;;4.50;97.30;;;;;;4917642;29;20938;-77
2020/12/08 16:55:22;;;;;;;29.00;16.70;;;4.50;97.30;;;;;;4917296;29;20427;-78
2020/12/08 16:57:48;;;;;;;35.07;17.20;;;4.50;97.30;;;;;;4916758;29;20425;-69
2020/12/08 17:00:17;;;;;;;34.13;18.43;;;4.40;97.30;;;;;;4916318;29;20472;-69
2020/12/08 17:02:43;;;;;;;29.67;15.50;;;4.40;97.30;;;;;;4917520;29;20211;-69
2020/12/08 17:05:10;;;;;;;28.90;14.20;;;4.30;97.30;;;;;;4915474;29;20488;-70
2020/12/08 17:07:41;;;;;;;27.23;15.10;;;4.30;97.30;;;;;;4917715;29;20970;-75
2020/12/08 17:10:07;;;;;;;27.10;14.60;;;4.20;97.30;;;;;;4916058;29;20425;-74
2020/12/08 17:12:33;;;;;;;28.97;14.33;;;4.20;97.30;;;;;;4915892;29;20475;-71
2020/12/08 17:14:59;;;;;;;31.97;15.17;;;4.10;97.30;;;;;;4916195;29;20436;-69
2020/12/08 17:17:25;;;;;;;25.10;14.30;;;4.10;97.30;;;;;;4916095;29;20449;-70
2020/12/08 17:19:50;;;;;;;26.80;15.00;;;4.00;97.30;;;;;;4915666;29;20208;-71
2020/12/08 17:22:16;;;;;;;26.30;14.10;;;4.00;97.30;;;;;;4917265;29;20539;-70
2020/12/08 17:24:42;;;;;;;29.53;15.23;;;3.90;97.30;;;;;;4915658;29;20220;-71
2020/12/08 17:27:09;;;;;;;30.97;15.57;;;3.90;97.30;;;;;;4915885;29;20227;-70
2020/12/08 17:29:35;;;;;;;30.90;16.23;;;3.90;97.30;;;;;;4915720;29;20184;-70
2020/12/08 17:32:02;;;;;;;27.43;15.77;;;3.80;97.30;;;;;;4915707;29;20451;-72
2020/12/08 17:34:28;;;;;;;33.73;17.30;;;3.90;97.30;;;;;;4915332;29;20421;-71
2020/12/08 17:36:55;;;;;;;30.13;15.10;;;3.90;97.30;;;;;;4915944;29;20484;-72
2020/12/08 17:39:21;;;;;;;32.50;17.10;;;3.90;97.30;;;;;;4917225;29;20448;-71
2020/12/08 17:41:47;;;;;;;33.27;18.80;;;3.80;97.30;;;;;;4915287;29;20456;-70
2020/12/08 17:44:13;;;;;;;31.07;16.13;;;3.80;97.30;;;;;;4915116;29;20468;-70
2020/12/08 17:46:39;;;;;;;35.93;17.17;;;3.80;97.30;;;;;;4915446;29;20412;-72
2020/12/08 17:49:06;;;;;;;33.40;16.00;;;3.70;97.30;;;;;;4916363;29;20405;-69
2020/12/08 17:51:32;;;;;;;27.43;13.20;;;3.70;97.30;;;;;;4916559;29;20429;-71
2020/12/08 17:53:58;;;;;;;23.53;13.50;;;3.70;97.30;;;;;;4915358;29;20443;-70
2020/12/08 17:56:25;;;;;;;26.53;14.17;;;3.60;97.30;;;;;;4916414;29;20919;-71
2020/12/08 17:58:51;;;;;;;30.30;14.00;;;3.60;97.30;;;;;;4915634;29;20187;-71
2020/12/08 18:01:16;;;;;;;29.30;13.83;;;3.60;97.30;;;;;;4917014;29;20551;-71
2020/12/08 18:03:44;;;;;;;28.80;15.30;;;3.60;97.30;;;;;;4915139;29;20212;-70
2020/12/08 18:06:09;;;;;;;38.53;19.77;;;3.50;97.30;;;;;;4916023;29;20751;-71
2020/12/08 18:08:35;;;;;;;25.67;13.57;;;3.50;97.30;;;;;;4915352;29;20420;-71
2020/12/08 18:11:01;;;;;;;31.17;16.27;;;3.50;97.30;;;;;;4915222;29;20209;-70
2020/12/08 18:13:26;;;;;;;32.93;16.87;;;3.50;97.30;;;;;;4914778;29;20464;-70
2020/12/08 18:15:52;;;;;;;33.13;16.70;;;3.50;97.30;;;;;;4915839;29;20196;-70
2020/12/08 18:18:18;;;;;;;33.50;17.50;;;3.40;97.30;;;;;;4914374;29;20270;-71
2020/12/08 18:20:43;;;;;;;30.13;14.70;;;3.40;97.30;;;;;;4914874;29;20236;-71
2020/12/08 18:23:09;;;;;;;33.37;17.03;;;3.50;97.30;;;;;;4917413;29;20188;-71
2020/12/08 18:25:35;;;;;;;35.63;16.40;;;3.50;97.30;;;;;;4919553;29;20212;-71
2020/12/08 18:28:00;;;;;;;38.03;16.13;;;3.50;97.30;;;;;;4920430;29;20667;-71
2020/12/08 18:30:26;;;;;;;37.97;20.03;;;3.60;97.30;;;;;;4920508;29;20177;-71
2020/12/08 18:32:52;;;;;;;31.43;15.63;;;3.60;97.30;;;;;;4920443;29;20177;-71